Time;durP1;ratioP1;P1;durP2;ratioP2;P2;SDS_P1;SDS_P2;PMS_P1;PMS_P2;Temp;Humidity;BMP_temperature;BMP_pressure;BME280_temperature;BME280_humidity;BME280_pressure;Samples;Min_cycle;Max_cycle;Signal;HPM_P1;HPM_P2
2022/10/13 00:07:48;;;;;;;9.40;6.63;;;;;;;9.68;100.00;98283.03;18148516;32;20090;-62
2022/10/13 00:17:51;;;;;;;12.93;7.00;;;;;;;9.57;100.00;98276.69;18097193;32;20074;-62
2022/10/13 00:27:53;;;;;;;12.27;6.30;;;;;;;9.47;100.00;98283.56;18096671;32;20076;-62
2022/10/13 00:37:55;;;;;;;11.77;8.43;;;;;;;9.43;100.00;98278.91;18084338;32;20405;-62
2022/10/13 00:48:00;;;;;;;9.73;7.37;;;;;;;9.39;100.00;98278.56;18116759;32;20046;-62
2022/10/13 00:58:06;;;;;;;11.83;6.87;;;;;;;9.38;100.00;98287.72;18240394;32;20545;-62
2022/10/13 01:08:11;;;;;;;14.90;8.87;;;;;;;9.43;100.00;98287.00;18239004;32;20098;-62
2022/10/13 01:18:45;;;;;;;13.20;8.10;;;;;;;9.50;100.00;98280.34;18239649;32;20054;-62
2022/10/13 01:29:25;;;;;;;13.93;8.70;;;;;;;9.58;100.00;98264.78;18239185;32;20074;-61
2022/10/13 01:39:53;;;;;;;10.73;8.03;;;;;;;9.65;100.00;98270.84;18238491;32;20525;-62
2022/10/13 01:49:56;;;;;;;11.23;8.13;;;;;;;9.80;100.00;98262.94;18238311;32;20085;-62
2022/10/13 02:00:01;;;;;;;10.27;8.20;;;;;;;9.96;100.00;98261.25;18236720;32;20085;-62
2022/10/13 02:10:26;;;;;;;;;;;;;;;10.09;100.00;98261.94;18237626;32;20445;-62
2022/10/13 02:20:30;;;;;;;13.77;7.80;;;;;;;10.20;100.00;98249.38;18236868;32;20385;-62
2022/10/13 02:30:33;;;;;;;10.35;7.72;;;;;;;10.28;100.00;98244.31;18164476;32;20392;-62
2022/10/13 02:40:36;;;;;;;11.67;8.77;;;;;;;10.36;100.00;98243.09;18163745;32;20066;-62
2022/10/13 02:50:38;;;;;;;12.18;8.13;;;;;;;10.39;100.00;98239.87;18163220;32;20533;-62
2022/10/13 03:00:41;;;;;;;11.10;8.50;;;;;;;10.41;100.00;98235.00;18150202;32;20104;-62
2022/10/13 03:10:43;;;;;;;9.98;7.62;;;;;;;10.40;100.00;98228.00;18218482;32;20113;-62
2022/10/13 03:20:54;;;;;;;9.17;7.47;;;;;;;10.33;100.00;98216.53;18234051;32;20110;-62
2022/10/13 03:31:05;;;;;;;8.52;7.12;;;;;;;10.28;100.00;98209.19;18234247;32;20122;-62
2022/10/13 03:41:14;;;;;;;8.33;7.10;;;;;;;10.26;100.00;98215.91;18232182;32;20054;-62
2022/10/13 03:51:19;;;;;;;8.90;6.83;;;;;;;10.18;100.00;98204.50;18231577;32;20054;-62
2022/10/13 04:01:27;;;;;;;11.90;6.80;;;;;;;10.05;100.00;98210.28;18232029;32;20073;-62
2022/10/13 04:11:30;;;;;;;8.83;7.27;;;;;;;9.96;100.00;98192.88;18231685;32;20062;-62
2022/10/13 04:21:34;;;;;;;7.33;6.63;;;;;;;9.90;100.00;98196.63;18230629;32;20069;-62
2022/10/13 04:31:38;;;;;;;8.77;7.07;;;;;;;9.89;100.00;98219.28;18242143;32;20362;-62
2022/10/13 04:41:40;;;;;;;13.57;7.40;;;;;;;9.87;100.00;98210.59;18169442;32;20252;-62
2022/10/13 04:51:43;;;;;;;8.47;6.83;;;;;;;9.90;100.00;98210.13;18045064;32;20454;-62
2022/10/13 05:01:45;;;;;;;8.37;6.97;;;;;;;9.83;100.00;98197.59;18044399;32;20514;-62
2022/10/13 05:11:47;;;;;;;8.33;6.77;;;;;;;9.78;100.00;98194.84;18053097;32;20150;-62
2022/10/13 05:21:49;;;;;;;10.83;7.57;;;;;;;9.72;100.00;98193.16;18124652;32;20073;-61
2022/10/13 05:31:52;;;;;;;9.97;7.80;;;;;;;9.66;100.00;98183.34;18237991;32;20453;-62
2022/10/13 05:41:54;;;;;;;8.70;7.03;;;;;;;9.62;100.00;98174.97;18237729;32;20058;-62
2022/10/13 05:52:05;;;;;;;7.70;6.73;;;;;;;9.61;100.00;98183.31;18237531;32;20108;-62
2022/10/13 06:02:10;;;;;;;10.53;6.70;;;;;;;9.54;100.00;98198.84;18237588;32;20071;-61
2022/10/13 06:12:13;;;;;;;8.37;6.90;;;;;;;9.53;100.00;98205.34;18236425;32;20084;-62
2022/10/13 06:22:16;;;;;;;7.20;6.33;;;;;;;9.54;100.00;98193.47;18236026;32;20446;-61
2022/10/13 06:32:19;;;;;;;11.10;7.70;;;;;;;9.66;100.00;98186.06;18236583;32;20055;-61
2022/10/13 06:42:23;;;;;;;8.43;6.93;;;;;;;9.83;100.00;98192.22;18236205;32;20077;-61
2022/10/13 06:52:26;;;;;;;8.17;6.47;;;;;;;10.03;100.00;98190.00;18235117;32;20386;-62
2022/10/13 07:02:28;;;;;;;9.27;6.83;;;;;;;10.15;100.00;98190.66;18235375;32;20062;-61
2022/10/13 07:12:31;;;;;;;7.60;6.33;;;;;;;10.31;100.00;98202.47;18233650;32;20058;-61
2022/10/13 07:22:34;;;;;;;8.07;6.60;;;;;;;10.51;100.00;98199.16;18087343;32;20088;-61
2022/10/13 07:32:37;;;;;;;6.75;5.87;;;;;;;10.74;100.00;98198.00;18099670;32;20087;-61
2022/10/13 07:42:40;;;;;;;5.80;4.77;;;;;;;11.10;100.00;98205.56;18098684;32;20116;-62
2022/10/13 07:52:44;;;;;;;6.57;5.33;;;;;;;11.54;100.00;98194.47;18204773;32;20407;-62
2022/10/13 08:02:50;;;;;;;7.62;5.50;;;;;;;11.87;100.00;98201.38;18230721;32;20050;-61
2022/10/13 08:12:53;;;;;;;8.60;5.72;;;;;;;12.02;100.00;98211.50;18232309;32;20062;-61
2022/10/13 08:22:56;;;;;;;7.68;6.10;;;;;;;12.12;100.00;98208.00;18230404;32;20058;-61
2022/10/13 08:32:59;;;;;;;10.23;6.35;;;;;;;12.30;100.00;98222.97;18230113;32;20077;-62
2022/10/13 08:43:08;;;;;;;9.25;6.87;;;;;;;12.61;100.00;98205.94;18230231;32;20107;-62
2022/10/13 08:53:32;;;;;;;9.35;6.50;;;;;;;12.95;100.00;98213.53;18230373;32;20135;-61
2022/10/13 09:04:10;;;;;;;9.35;6.53;;;;;;;13.31;100.00;98216.22;18230085;32;20106;-62
2022/10/13 09:14:26;;;;;;;7.87;6.57;;;;;;;13.76;100.00;98200.91;18236771;32;20426;-62
2022/10/13 09:24:29;;;;;;;10.18;6.87;;;;;;;14.12;100.00;98198.03;18226116;32;20102;-62
2022/10/13 09:34:33;;;;;;;11.20;6.10;;;;;;;14.38;100.00;98201.41;18237416;32;20074;-62
2022/10/13 09:44:35;;;;;;;6.77;5.47;;;;;;;14.61;100.00;98215.41;18238566;32;20054;-62
2022/10/13 09:54:39;;;;;;;7.43;6.12;;;;;;;14.74;100.00;98206.62;18237797;32;20054;-62
2022/10/13 10:04:45;;;;;;;7.75;5.47;;;;;;;15.03;100.00;98194.13;18228367;32;20074;-62
2022/10/13 10:14:49;;;;;;;10.55;7.25;;;;;;;15.38;100.00;98205.78;18203313;32;20085;-62
2022/10/13 10:25:01;;;;;;;;;;;;;;;15.75;100.00;98187.94;18227136;32;20066;-62
2022/10/13 10:35:52;;;;;;;7.15;5.78;;;;;;;15.99;100.00;98208.94;18228646;32;19992;-62
2022/10/13 10:45:59;;;;;;;9.05;5.55;;;;;;;16.29;100.00;98198.72;18234577;32;20496;-62
2022/10/13 10:56:34;;;;;;;11.15;7.28;;;;;;;16.56;100.00;98207.06;18234098;32;20077;-62
2022/10/13 11:06:38;;;;;;;13.15;8.45;;;;;;;16.55;100.00;98199.16;18233944;32;20165;-62
2022/10/13 11:17:08;;;;;;;9.52;6.47;;;;;;;16.65;97.21;98184.53;18223071;32;20062;-62
2022/10/13 11:27:14;;;;;;;8.52;5.35;;;;;;;16.69;99.48;98174.66;18233126;32;20483;-62
2022/10/13 11:37:17;;;;;;;7.55;4.82;;;;;;;16.94;100.00;98159.81;18232975;32;20077;-62
2022/10/13 11:47:38;;;;;;;7.40;4.90;;;;;;;17.23;97.18;98148.59;18233126;32;20366;-62
2022/10/13 11:57:42;;;;;;;9.20;4.32;;;;;;;17.54;94.46;98142.56;18231495;32;20093;-62
2022/10/13 12:07:46;;;;;;;7.03;3.93;;;;;;;17.81;92.77;98115.50;18232303;32;20411;-62
2022/10/13 12:17:49;;;;;;;6.25;3.45;;;;;;;18.25;91.77;98095.63;18230330;32;20137;-62
2022/10/13 12:27:57;;;;;;;4.87;3.42;;;;;;;18.33;88.63;98082.31;18230055;32;20121;-62
2022/10/13 12:38:06;;;;;;;5.30;3.17;;;;;;;18.16;87.36;98089.28;18229905;32;20062;-62
2022/10/13 12:48:29;;;;;;;5.25;2.97;;;;;;;17.89;90.43;98084.66;18237089;32;20111;-62
2022/10/13 12:58:34;;;;;;;6.93;4.07;;;;;;;17.81;90.26;98079.94;18240369;32;20058;-62
2022/10/13 13:08:37;;;;;;;3.70;3.08;;;;;;;17.65;88.02;98082.19;18239257;32;20126;-62
2022/10/13 13:18:44;;;;;;;5.97;3.70;;;;;;;17.75;91.00;98049.94;18238362;32;20434;-62
2022/10/13 13:28:53;;;;;;;5.30;3.47;;;;;;;17.70;88.71;98063.72;18238095;32;20050;-62
2022/10/13 13:38:55;;;;;;;6.87;3.60;;;;;;;17.53;92.31;98053.44;18239137;32;20066;-62
2022/10/13 13:48:58;;;;;;;4.10;3.00;;;;;;;17.61;93.98;98055.44;18237246;32;20095;-62
2022/10/13 13:59:01;;;;;;;6.30;2.80;;;;;;;17.68;91.41;98051.47;18236902;32;20472;-62
2022/10/13 14:09:04;;;;;;;4.72;3.33;;;;;;;17.53;93.45;98047.97;18165452;32;20495;-62
2022/10/13 14:19:09;;;;;;;4.07;2.97;;;;;;;17.14;91.68;98043.03;18152805;32;20386;-62
2022/10/13 14:29:12;;;;;;;6.78;3.22;;;;;;;17.05;94.68;98043.75;18164655;32;20063;-62
2022/10/13 14:39:16;;;;;;;5.57;3.30;;;;;;;17.18;97.58;98033.13;18209031;32;20110;-62
2022/10/13 14:49:19;;;;;;;;;;;;;;;17.13;96.53;98034.06;18235289;32;20102;-62
2022/10/13 14:59:21;;;;;;;7.05;4.45;;;;;;;16.85;95.61;98031.25;18235328;32;19995;-62
2022/10/13 15:09:24;;;;;;;6.82;3.87;;;;;;;16.54;97.41;98031.84;18234771;32;20050;-61
2022/10/13 15:19:46;;;;;;;4.87;3.90;;;;;;;16.43;99.83;98027.66;18234754;32;20073;-62
2022/10/13 15:29:49;;;;;;;12.57;5.00;;;;;;;16.24;100.00;98033.97;18234229;32;20093;-61
2022/10/13 15:39:53;;;;;;;10.73;4.68;;;;;;;15.91;100.00;98036.69;18232333;32;20054;-62
2022/10/13 15:49:58;;;;;;;5.82;4.12;;;;;;;15.63;100.00;98032.16;18233294;32;20102;-62
2022/10/13 16:00:01;;;;;;;6.20;4.03;;;;;;;15.36;100.00;98028.97;18232209;32;20446;-62
2022/10/13 16:10:04;;;;;;;5.72;3.58;;;;;;;15.23;100.00;98025.03;18231012;32;20059;-61
2022/10/13 16:20:08;;;;;;;7.87;3.30;;;;;;;15.05;100.00;98029.34;18231125;32;20095;-62
2022/10/13 16:30:11;;;;;;;0.00;0.00;;;;;;;14.84;100.00;98036.94;18217588;32;20105;-62
2022/10/13 16:40:14;;;;;;;4.50;3.17;;;;;;;14.62;100.00;98031.97;18230263;32;20071;-62
2022/10/13 16:50:18;;;;;;;5.53;3.60;;;;;;;14.37;100.00;98041.97;18229343;32;20050;-61
2022/10/13 17:00:22;;;;;;;5.53;3.20;;;;;;;14.16;100.00;98046.00;18228287;32;20058;-62
2022/10/13 17:10:25;;;;;;;7.10;3.62;;;;;;;13.98;100.00;98050.19;18228339;32;20431;-62
2022/10/13 17:20:27;;;;;;;5.82;3.55;;;;;;;13.84;100.00;98058.16;18229334;32;20103;-62
2022/10/13 17:30:31;;;;;;;5.32;3.25;;;;;;;13.72;100.00;98053.09;18229934;32;20489;-61
2022/10/13 17:40:34;;;;;;;5.00;3.03;;;;;;;13.61;100.00;98059.66;18238941;32;20054;-61
2022/10/13 17:50:37;;;;;;;5.60;2.90;;;;;;;13.49;100.00;98066.25;18237431;32;20091;-61
2022/10/13 18:00:39;;;;;;;4.55;3.62;;;;;;;13.42;100.00;98070.38;18238043;32;20523;-61
2022/10/13 18:11:07;;;;;;;4.70;3.45;;;;;;;13.32;100.00;98061.12;18237964;32;20066;-62
2022/10/13 18:21:13;;;;;;;7.40;3.65;;;;;;;13.23;100.00;98069.03;18236292;32;20100;-62
2022/10/13 18:31:27;;;;;;;5.03;3.42;;;;;;;13.18;100.00;98065.53;18164866;32;20078;-62
2022/10/13 18:41:30;;;;;;;5.07;3.27;;;;;;;13.12;100.00;98051.16;18163903;32;20498;-61
2022/10/13 18:51:34;;;;;;;3.20;2.77;;;;;;;13.05;100.00;98047.94;18163417;32;20134;-62
2022/10/13 19:01:38;;;;;;;5.75;3.80;;;;;;;13.00;100.00;98042.50;18221567;32;20526;-62
2022/10/13 19:11:41;;;;;;;5.18;3.25;;;;;;;12.96;100.00;98041.44;18233992;32;20062;-61
2022/10/13 19:21:43;;;;;;;7.07;3.78;;;;;;;12.91;100.00;98042.28;18220897;32;20085;-62
2022/10/13 19:31:46;;;;;;;4.62;3.42;;;;;;;12.87;100.00;98033.06;18234169;32;20051;-61
2022/10/13 19:41:50;;;;;;;5.90;3.95;;;;;;;12.82;100.00;98033.87;18233526;32;20073;-62
2022/10/13 19:51:53;;;;;;;5.53;3.50;;;;;;;12.79;100.00;98042.56;18233029;32;20046;-61
2022/10/13 20:01:56;;;;;;;6.53;4.00;;;;;;;12.75;100.00;98046.91;18230674;32;20054;-61
2022/10/13 20:11:58;;;;;;;5.43;4.15;;;;;;;12.71;100.00;98052.06;18232231;32;20071;-62
2022/10/13 20:22:01;;;;;;;5.85;4.00;;;;;;;12.69;100.00;98051.56;18159397;32;20066;-62
2022/10/13 20:32:03;;;;;;;5.22;4.28;;;;;;;12.64;100.00;98048.84;18159112;32;20111;-62
2022/10/13 20:42:06;;;;;;;7.87;4.18;;;;;;;12.57;100.00;98075.44;18158569;32;20201;-62
2022/10/13 20:52:08;;;;;;;5.93;4.00;;;;;;;12.58;100.00;98070.81;18215327;32;20068;-61
2022/10/13 21:02:12;;;;;;;5.37;3.65;;;;;;;12.54;100.00;98078.72;18229944;32;20493;-61
2022/10/13 21:12:15;;;;;;;5.57;3.80;;;;;;;12.50;100.00;98081.13;18239091;32;20393;-61
2022/10/13 21:22:18;;;;;;;5.25;3.85;;;;;;;12.53;100.00;98079.78;18238789;32;20050;-62
2022/10/13 21:32:20;;;;;;;7.93;4.85;;;;;;;12.56;100.00;98081.16;18239052;32;20140;-62
2022/10/13 21:42:22;;;;;;;10.63;5.62;;;;;;;12.59;100.00;98075.97;18237658;32;20046;-62
2022/10/13 21:52:26;;;;;;;9.48;6.25;;;;;;;12.61;100.00;98067.59;18238510;32;20344;-62
2022/10/13 22:02:29;;;;;;;9.90;6.20;;;;;;;12.58;100.00;98066.22;18237776;32;20450;-61
2022/10/13 22:12:31;;;;;;;6.62;5.40;;;;;;;12.57;100.00;98074.66;18237477;32;20113;-61
2022/10/13 22:22:34;;;;;;;6.90;5.62;;;;;;;12.56;100.00;98073.81;18235218;32;20077;-61
2022/10/13 22:32:36;;;;;;;8.00;5.68;;;;;;;12.56;100.00;98067.59;18235818;32;20054;-61
2022/10/13 22:42:39;;;;;;;8.63;5.78;;;;;;;12.54;100.00;98062.44;18235507;32;20046;-61
2022/10/13 22:52:41;;;;;;;8.85;5.82;;;;;;;12.49;100.00;98035.31;18235032;32;20054;-62
2022/10/13 23:02:43;;;;;;;8.48;5.72;;;;;;;12.46;100.00;98025.81;18235506;32;20054;-62
2022/10/13 23:12:45;;;;;;;9.65;6.07;;;;;;;12.46;100.00;98020.41;18162711;32;20075;-61
2022/10/13 23:22:48;;;;;;;8.30;6.57;;;;;;;12.46;100.00;98012.25;18162138;32;20130;-62
2022/10/13 23:32:50;;;;;;;7.90;6.43;;;;;;;12.43;100.00;98012.81;18037551;32;20542;-61
2022/10/13 23:42:53;;;;;;;9.38;5.75;;;;;;;12.42;100.00;98011.19;18085875;32;20417;-61
2022/10/13 23:52:55;;;;;;;7.72;6.22;;;;;;;12.45;100.00;98009.81;17987549;32;20082;-62
